Weather at San Antonio International Airport

Public forecast

Using degrees Fahrenheit for public forecast. Weather courtesy of forecast.io.

Current aviation weather report (METAR) for San Antonio International Airport

Retrieved 2022/01/25 03:51 UTC (28 minutes ago):

KSAT 250351Z 00000KT 8SM FEW008 08/07 A2990 RMK AO2 SLP117 T00830072

Aviation forecast (TAF) for San Antonio International Airport

Retrieved 2022-01-25 00:34 UTC (4 hours ago):

TAF KSAT 242331Z 2500/2606 VRB03KT P6SM SCT008 BKN012 FM250300 VRB02KT 5SM BR BKN005 FM250500 VRB02KT 2SM BR BKN003 FM250700 VRB02KT 1/2SM FG OVC002 FM251600 03004KT 3SM BR BKN005 FM251800 04007KT P6SM SCT015